West Orange, Texas
Current Conditions -  °F | °C
As of 7:55 AM on Wednesday 26 Nov 2014 (Local Time) from KORG Reporting Station
Clear Clear  
Wind Chill: 52°   Ceiling: Unl
Heat Index: 52°   Visibility: 10mi
Dew Point: 52°   Wind: 5mph
Humidity: 100%   Direction: 210°SSW
Pressure: 30.25"   Gusts: NA
Location:  30.1136°N, 93.814°W
Report Text: KORG 261355Z AUTO 21004KT 10SM CLR 11/11 A3025 RMK AO2 T01090109
Loading
Personal Weather Stations






























Interactive Weather Map New forecast layout! Learn more

10-Day Weather Forecast

Advertisements
Track Severe Weather on mobile